Time;durP1;ratioP1;P1;durP2;ratioP2;P2;SDS_P1;SDS_P2;PMS_P1;PMS_P2;Temp;Humidity;BMP_temperature;BMP_pressure;BME280_temperature;BME280_humidity;BME280_pressure;Samples;Min_cycle;Max_cycle;Signal;HPM_P1;HPM_P2
2023/09/23 00:01:25;;;;;;;13.63;7.90;;;;;;;15.58;58.87;100447.16;4871365;29;20193;-89
2023/09/23 00:03:52;;;;;;;19.90;8.10;;;;;;;15.47;59.06;100429.28;4926916;29;20080;-95
2023/09/23 00:06:20;;;;;;;23.00;8.52;;;;;;;15.68;59.63;100466.19;4925811;29;20072;-94
2023/09/23 00:08:48;;;;;;;12.68;8.57;;;;;;;15.63;59.24;100459.97;4878731;29;20466;-96
2023/09/23 00:11:15;;;;;;;;;;;;;;;15.92;59.63;100500.81;4893578;29;20036;-93
2023/09/23 00:13:41;;;;;;;22.92;8.13;;;;;;;15.22;59.39;100389.47;4894055;29;19993;-94
2023/09/23 00:16:08;;;;;;;15.13;8.63;;;;;;;15.15;58.59;100391.88;4903451;29;20040;-95
2023/09/23 00:18:34;;;;;;;;;;;;;;;15.90;59.30;100500.34;4895498;29;20043;-95
2023/09/23 00:21:02;;;;;;;13.70;7.88;;;;;;;15.15;58.91;100389.94;4894791;29;19927;-94
2023/09/23 00:23:29;;;;;;;17.45;8.65;;;;;;;15.84;60.16;100496.91;4880176;29;20573;-95
2023/09/23 00:25:55;;;;;;;17.35;8.05;;;;;;;15.36;59.46;100427.94;4893441;29;20044;-94
2023/09/23 00:28:25;;;;;;;17.58;7.70;;;;;;;15.35;59.52;100435.41;4888225;29;20041;-94
2023/09/23 00:30:53;;;;;;;13.15;7.88;;;;;;;15.10;59.64;100395.59;4908839;29;20029;-95
2023/09/23 00:33:20;;;;;;;15.68;8.05;;;;;;;15.33;59.00;100434.09;4902262;29;20463;-94
2023/09/23 00:35:46;;;;;;;18.55;8.27;;;;;;;15.10;59.79;100409.38;4875409;29;20529;-94
2023/09/23 00:38:13;;;;;;;;;;;;;;;15.78;59.69;100503.69;4893734;29;20051;-94
2023/09/23 00:40:41;;;;;;;24.15;8.20;;;;;;;15.29;60.33;100428.41;4896013;29;20135;-95
2023/09/23 00:43:11;;;;;;;21.95;8.75;;;;;;;15.03;60.03;100384.19;4893471;29;20040;-93
2023/09/23 00:45:48;;;;;;;36.05;9.18;;;;;;;15.41;60.29;100445.16;4891446;29;20053;-94
2023/09/23 00:48:20;;;;;;;26.02;8.35;;;;;;;15.27;59.38;100434.25;4910633;29;20048;-95
2023/09/23 00:50:50;;;;;;;23.10;8.70;;;;;;;14.96;60.07;100376.38;4898327;29;20048;-95
2023/09/23 00:53:17;;;;;;;27.98;9.05;;;;;;;15.11;59.44;100419.25;4898739;29;20051;-94
2023/09/23 00:55:52;;;;;;;26.63;9.23;;;;;;;15.40;60.01;100468.34;4896407;29;20039;-94
2023/09/23 00:58:21;;;;;;;33.38;8.65;;;;;;;15.07;59.98;100412.75;4898777;29;20040;-94
2023/09/23 01:01:01;;;;;;;27.75;8.38;;;;;;;15.36;60.04;100458.25;4912921;29;20044;-95
2023/09/23 01:03:32;;;;;;;20.52;8.52;;;;;;;14.98;60.13;100400.88;4906557;29;20049;-94
2023/09/23 01:06:03;;;;;;;15.93;8.43;;;;;;;15.26;60.21;100451.06;4897849;29;20051;-93
2023/09/23 01:08:30;;;;;;;19.65;8.35;;;;;;;15.40;59.91;100471.09;4888472;29;20044;-92
2023/09/23 01:10:56;;;;;;;16.87;7.37;;;;;;;15.39;59.45;100463.94;4890770;29;20051;-93
2023/09/23 01:13:29;;;;;;;19.48;7.95;;;;;;;14.94;60.32;100395.19;4884043;29;20046;-92
2023/09/23 01:15:56;;;;;;;17.00;8.35;;;;;;;15.58;59.52;100494.03;4882643;29;20056;-94
2023/09/23 01:18:23;;;;;;;24.58;8.40;;;;;;;15.61;60.08;100501.66;4888717;29;20540;-94
2023/09/23 01:20:56;;;;;;;14.00;8.25;;;;;;;14.89;59.39;100389.00;4932448;29;20068;-94
2023/09/23 01:23:29;;;;;;;16.27;8.15;;;;;;;15.43;60.08;100472.38;4902018;29;20072;-94
2023/09/23 01:26:54;;;;;;;18.52;9.00;;;;;;;15.57;60.85;100497.91;4907048;29;20115;-93
2023/09/23 01:29:26;;;;;;;18.35;8.15;;;;;;;15.54;60.92;100498.53;4893880;29;20044;-94
2023/09/23 01:32:17;;;;;;;24.65;8.82;;;;;;;15.51;60.37;100499.19;4886748;29;20045;-92
2023/09/23 01:35:36;;;;;;;16.83;8.90;;;;;;;14.78;59.97;100402.22;4897998;29;20049;-96
2023/09/23 01:42:57;;;;;;;;;;;;;;;;;;;;;
2023/09/23 02:24:28;;;;;;;24.55;8.57;;;;;;;14.40;62.80;100418.25;4859023;29;20050;-96
2023/09/23 02:32:21;;;;;;;19.67;8.88;;;;;;;14.24;62.30;100404.06;4817902;29;20115;-95
2023/09/23 02:39:09;;;;;;;55.10;10.10;;;;;;;14.29;63.08;100415.75;4809875;29;20055;-95
2023/09/23 02:41:48;;;;;;;23.92;9.90;;;;;;;14.30;63.17;100422.88;4811235;29;20050;-96
2023/09/23 02:44:31;;;;;;;25.98;10.02;;;;;;;14.28;62.36;100430.63;4809644;29;20062;-92
2023/09/23 02:47:23;;;;;;;29.20;9.77;;;;;;;14.27;62.16;100428.16;4785583;29;20028;-95
2023/09/23 02:49:58;;;;;;;22.85;9.88;;;;;;;14.42;62.56;100452.59;4750930;30;20077;-93
2023/09/23 02:52:57;;;;;;;22.42;10.10;;;;;;;14.63;62.17;100491.47;4775418;30;20043;-96
2023/09/23 02:56:18;;;;;;;21.63;10.00;;;;;;;14.68;62.72;100496.06;4780528;30;20063;-94
2023/09/23 03:08:13;;;;;;;33.10;11.13;;;;;;;14.75;62.65;100508.25;4756462;30;20028;-95
2023/09/23 03:12:04;;;;;;;18.98;10.40;;;;;;;14.24;62.68;100428.81;4765670;30;20047;-94
2023/09/23 03:15:14;;;;;;;33.50;11.52;;;;;;;14.19;62.43;100439.94;4766949;30;20049;-94
2023/09/23 03:21:22;;;;;;;26.55;11.90;;;;;;;14.09;62.67;100439.03;4771874;30;20055;-94
2023/09/23 03:31:54;;;;;;;36.17;13.65;;;;;;;14.14;62.42;100426.28;4718005;30;20053;-94
2023/09/23 03:34:43;;;;;;;26.92;12.95;;;;;;;14.24;62.61;100437.06;4737872;30;20056;-95
2023/09/23 03:38:10;;;;;;;28.67;12.30;;;;;;;14.84;62.56;100535.06;4714693;30;20066;-95
2023/09/23 03:48:54;;;;;;;34.25;12.82;;;;;;;14.82;62.70;100540.84;4765517;30;20052;-95
2023/09/23 03:51:36;;;;;;;31.83;12.75;;;;;;;14.21;62.46;100443.19;4738091;30;20064;-92
2023/09/23 03:58:24;;;;;;;28.17;11.05;;;;;;;14.56;63.13;100500.16;4901377;23;20087;-95
2023/09/23 04:01:13;;;;;;;24.27;11.10;;;;;;;14.84;62.96;100546.88;4923960;29;20047;-94
2023/09/23 04:04:14;;;;;;;23.00;11.95;;;;;;;14.15;63.00;100439.72;4854776;29;20066;-96
2023/09/23 04:11:46;;;;;;;;;;;;;;;;;;;;;
2023/09/23 04:20:58;;;;;;;;;;;;;;;;;;;;;
2023/09/23 04:24:29;;;;;;;25.90;10.40;;;;;;;14.98;62.76;100552.31;4812089;29;20046;-94
2023/09/23 04:53:04;;;;;;;22.80;9.50;;;;;;;15.02;62.77;100517.53;4971316;29;20058;-94
2023/09/23 04:55:32;;;;;;;24.48;10.13;;;;;;;15.45;62.45;100574.84;4908019;29;20047;-93
2023/09/23 04:58:33;;;;;;;20.38;12.35;;;;;;;15.03;62.15;100502.63;4932922;29;20052;-94
2023/09/23 05:08:05;;;;;;;53.70;16.75;;;;;;;15.13;63.07;100476.75;4976152;23;20064;-93
2023/09/23 05:10:35;;;;;;;36.70;14.30;;;;;;;15.63;62.66;100556.44;4910684;29;20052;-92
2023/09/23 05:13:02;;;;;;;39.00;11.80;;;;;;;15.58;62.17;100540.88;4897493;29;20056;-93
2023/09/23 05:15:33;;;;;;;40.85;11.02;;;;;;;15.35;62.38;100496.00;4914383;29;20052;-92
2023/09/23 05:18:23;;;;;;;30.42;10.50;;;;;;;15.58;62.15;100516.06;4897735;29;20128;-92
2023/09/23 05:20:53;;;;;;;25.05;10.65;;;;;;;15.44;61.63;100493.31;4901469;29;20047;-92
2023/09/23 05:23:32;;;;;;;21.13;12.05;;;;;;;15.48;61.35;100484.09;4899168;29;20096;-92
2023/09/23 05:26:00;;;;;;;30.70;11.60;;;;;;;16.00;61.29;100544.19;4871109;29;20151;-91
2023/09/23 05:28:47;;;;;;;34.47;11.13;;;;;;;15.94;61.15;100524.19;4867644;29;20045;-92
2023/09/23 05:32:25;;;;;;;19.58;10.40;;;;;;;16.41;61.46;100582.44;4880976;29;20045;-95
2023/09/23 05:46:27;;;;;;;;;;;;;;;16.86;59.15;100587.72;4959263;29;20023;-92
2023/09/23 05:49:02;;;;;;;54.15;9.70;;;;;;;16.35;59.96;100491.81;4957156;29;19922;-91
2023/09/23 05:51:33;;;;;;;23.05;8.70;;;;;;;16.39;59.02;100492.78;4922311;29;20039;-95
2023/09/23 05:54:02;;;;;;;25.15;8.82;;;;;;;16.85;58.55;100555.72;4913928;29;20063;-90
2023/09/23 05:57:05;;;;;;;65.55;10.93;;;;;;;16.61;59.01;100506.47;4924634;29;20051;-95
2023/09/23 06:00:59;;;;;;;19.67;8.93;;;;;;;17.28;57.75;100592.75;4939351;29;20044;-94
2023/09/23 06:39:35;;;;;;;29.60;8.52;;;;;;;18.41;53.30;100532.31;4877884;29;20054;-92
2023/09/23 06:42:01;;;;;;;36.38;8.60;;;;;;;18.61;53.60;100550.09;4878642;29;20041;-91
2023/09/23 06:44:27;;;;;;;19.92;8.07;;;;;;;18.35;52.05;100494.09;4866752;29;20197;-92
2023/09/23 06:46:53;;;;;;;40.70;8.45;;;;;;;18.94;51.44;100568.75;4850746;29;20090;-91
2023/09/23 06:49:19;;;;;;;22.25;8.25;;;;;;;19.00;52.30;100571.00;4843864;29;20076;-87
2023/09/23 06:51:51;;;;;;;33.90;9.23;;;;;;;18.98;51.70;100547.56;4853261;29;20045;-91
2023/09/23 06:54:46;;;;;;;35.83;8.48;;;;;;;18.81;51.56;100503.34;4836550;29;20054;-93
2023/09/23 06:57:15;;;;;;;18.25;8.10;;;;;;;18.92;50.73;100508.16;4856628;29;20148;-87
2023/09/23 06:59:41;;;;;;;25.63;8.10;;;;;;;19.60;50.15;100590.16;4864555;29;20073;-87
2023/09/23 07:02:07;;;;;;;38.13;9.07;;;;;;;19.62;50.08;100576.78;4845745;29;20172;-87
2023/09/23 07:04:34;;;;;;;24.97;7.80;;;;;;;19.62;50.71;100563.72;4859607;29;20049;-84
2023/09/23 07:07:00;;;;;;;24.85;7.80;;;;;;;19.86;50.50;100589.91;4856874;29;20057;-84
2023/09/23 07:09:28;;;;;;;25.43;7.10;;;;;;;19.83;49.91;100571.16;4860191;29;20436;-84
2023/09/23 07:11:54;;;;;;;34.13;8.05;;;;;;;19.94;49.02;100581.50;4841218;29;20045;-84
2023/09/23 07:14:20;;;;;;;23.60;7.50;;;;;;;19.78;49.01;100541.69;4843694;29;20045;-86
2023/09/23 07:16:49;;;;;;;16.67;7.37;;;;;;;19.88;47.70;100532.91;4862249;29;20054;-86
2023/09/23 07:19:15;;;;;;;26.75;7.50;;;;;;;20.09;48.05;100554.19;4863488;29;20511;-87
2023/09/23 07:21:42;;;;;;;21.90;7.37;;;;;;;20.05;48.80;100540.19;4851696;29;20070;-88
2023/09/23 07:24:10;;;;;;;30.23;9.05;;;;;;;20.26;48.28;100564.25;4861133;29;20068;-87
2023/09/23 07:26:36;;;;;;;25.58;8.35;;;;;;;20.23;50.12;100532.47;4860458;29;20102;-88
2023/09/23 07:29:02;;;;;;;25.07;8.23;;;;;;;20.53;48.45;100548.84;4863521;29;20686;-87
2023/09/23 07:31:28;;;;;;;46.40;9.23;;;;;;;20.80;48.00;100587.03;4844426;29;20299;-86
2023/09/23 07:33:54;;;;;;;32.87;7.73;;;;;;;20.62;47.53;100542.00;4860907;29;20050;-85
2023/09/23 07:36:20;;;;;;;29.10;8.43;;;;;;;20.70;45.56;100554.16;4862202;29;20058;-86
2023/09/23 07:38:47;;;;;;;18.73;7.70;;;;;;;20.84;46.07;100576.00;4863672;29;20054;-87
2023/09/23 07:41:17;;;;;;;31.60;8.52;;;;;;;21.07;45.65;100592.97;4866326;29;20053;-86
2023/09/23 07:43:43;;;;;;;25.20;8.43;;;;;;;20.85;46.01;100544.25;4863229;29;20056;-86
2023/09/23 07:46:09;;;;;;;37.90;8.10;;;;;;;20.95;46.88;100552.09;4865911;29;20511;-87
2023/09/23 07:48:35;;;;;;;47.13;9.70;;;;;;;21.27;46.01;100589.19;4869536;29;20045;-88
2023/09/23 07:51:01;;;;;;;33.97;7.50;;;;;;;21.17;46.00;100566.63;4868704;29;20524;-87
2023/09/23 07:53:27;;;;;;;22.88;7.95;;;;;;;21.14;46.53;100559.00;4866648;29;20057;-85
2023/09/23 07:55:53;;;;;;;26.60;9.07;;;;;;;21.45;43.90;100594.47;4871795;29;20053;-85
2023/09/23 07:58:19;;;;;;;66.28;11.20;;;;;;;21.38;43.05;100567.25;4869242;29;20056;-87
2023/09/23 08:00:45;;;;;;;45.60;8.85;;;;;;;21.57;43.08;100580.50;4872538;29;20075;-88
2023/09/23 08:03:13;;;;;;;25.17;8.77;;;;;;;21.32;43.31;100536.09;4885552;29;20621;-87
2023/09/23 08:05:39;;;;;;;32.42;9.70;;;;;;;21.60;43.95;100573.41;4884551;29;20388;-87
2023/09/23 08:08:06;;;;;;;34.28;8.05;;;;;;;21.63;44.15;100556.81;4868752;29;20045;-87
2023/09/23 08:10:32;;;;;;;32.78;8.32;;;;;;;21.84;44.59;100578.00;4871645;29;20041;-89
2023/09/23 08:12:58;;;;;;;31.88;8.48;;;;;;;21.91;42.59;100579.00;4869200;29;20080;-85
2023/09/23 08:15:26;;;;;;;28.48;8.38;;;;;;;21.71;42.74;100541.09;4884865;29;20037;-85
2023/09/23 08:17:53;;;;;;;17.48;7.40;;;;;;;22.15;46.16;100585.53;4884709;29;20504;-88
2023/09/23 08:20:23;;;;;;;34.67;8.90;;;;;;;22.18;43.92;100531.94;4869610;29;20049;-87
2023/09/23 08:22:50;;;;;;;17.27;7.32;;;;;;;22.49;44.77;100531.06;4869135;29;20562;-89
2023/09/23 08:25:20;;;;;;;24.40;6.82;;;;;;;23.03;42.04;100577.66;4884416;29;20064;-87
2023/09/23 08:27:48;;;;;;;30.30;7.53;;;;;;;22.88;43.19;100539.44;4888888;29;20104;-87
2023/09/23 08:30:17;;;;;;;27.30;7.53;;;;;;;22.89;40.71;100527.16;4866613;29;20127;-87
2023/09/23 08:32:44;;;;;;;34.28;7.35;;;;;;;23.05;42.97;100538.25;4881896;29;20049;-87
2023/09/23 08:35:10;;;;;;;24.25;6.53;;;;;;;23.29;40.04;100545.50;4868667;29;20136;-87
2023/09/23 08:37:37;;;;;;;34.22;7.00;;;;;;;23.55;39.38;100576.31;4867698;29;20060;-87
2023/09/23 08:40:10;;;;;;;21.58;6.75;;;;;;;23.53;41.97;100545.16;4868110;29;20422;-87
2023/09/23 08:42:38;;;;;;;36.15;7.43;;;;;;;23.79;40.10;100577.16;4867365;29;20081;-87
2023/09/23 08:45:07;;;;;;;22.73;7.25;;;;;;;23.88;38.15;100572.13;4867725;29;20091;-87
2023/09/23 08:47:39;;;;;;;27.60;7.97;;;;;;;23.97;40.01;100564.28;4870348;29;20052;-87
2023/09/23 08:50:08;;;;;;;19.33;6.85;;;;;;;23.92;37.56;100528.31;4871773;29;20523;-88
2023/09/23 08:52:38;;;;;;;22.00;7.30;;;;;;;23.99;37.18;100550.75;4884177;29;20053;-87
2023/09/23 08:55:09;;;;;;;34.92;7.65;;;;;;;23.99;39.23;100547.97;4884491;29;20137;-87
2023/09/23 08:57:35;;;;;;;24.23;7.22;;;;;;;23.97;38.03;100527.97;4867602;29;20045;-88
2023/09/23 09:00:08;;;;;;;17.98;6.80;;;;;;;24.33;38.45;100540.50;4887956;29;20092;-87
2023/09/23 09:02:34;;;;;;;22.33;7.13;;;;;;;24.49;37.22;100543.19;4876486;29;20213;-87
2023/09/23 09:05:00;;;;;;;12.00;7.20;;;;;;;24.53;37.52;100541.22;4886487;29;20506;-87
2023/09/23 09:07:41;;;;;;;19.15;7.32;;;;;;;24.33;38.19;100517.34;4890818;29;20085;-87
2023/09/23 09:10:17;;;;;;;15.05;7.07;;;;;;;24.44;37.84;100521.16;4864244;29;20098;-89
2023/09/23 09:12:45;;;;;;;20.42;6.47;;;;;;;24.59;36.60;100527.75;4877093;29;20120;-87
2023/09/23 09:15:12;;;;;;;11.85;6.85;;;;;;;24.68;36.16;100545.03;4890407;29;20057;-88
2023/09/23 09:18:04;;;;;;;17.00;7.10;;;;;;;24.67;37.18;100546.25;4873951;29;20071;-86
2023/09/23 09:20:33;;;;;;;15.85;7.43;;;;;;;24.61;36.94;100526.19;4891970;29;20065;-86
2023/09/23 09:22:59;;;;;;;15.45;6.88;;;;;;;24.83;36.72;100538.47;4884428;29;20040;-87
2023/09/23 09:25:26;;;;;;;10.90;6.82;;;;;;;25.06;35.33;100560.69;4869620;29;20045;-88
2023/09/23 09:27:53;;;;;;;18.13;7.60;;;;;;;25.00;35.12;100553.84;4871233;29;20049;-87
2023/09/23 09:30:19;;;;;;;19.65;8.77;;;;;;;24.91;35.14;100522.56;4868458;29;20563;-88
2023/09/23 09:32:47;;;;;;;12.38;6.40;;;;;;;24.72;34.75;100508.72;4869337;29;20080;-86
2023/09/23 09:35:15;;;;;;;17.83;7.00;;;;;;;25.02;34.65;100557.06;4883951;29;20040;-90
2023/09/23 09:37:46;;;;;;;16.35;6.80;;;;;;;25.17;34.65;100529.28;4887034;29;20544;-88
2023/09/23 09:40:21;;;;;;;16.25;6.60;;;;;;;25.43;34.63;100551.56;4868071;29;20083;-89
2023/09/23 09:42:54;;;;;;;37.72;7.00;;;;;;;25.08;33.54;100501.56;4880182;29;20045;-88
2023/09/23 09:45:22;;;;;;;12.15;6.50;;;;;;;25.07;33.85;100502.78;4864308;29;20052;-89
2023/09/23 09:47:49;;;;;;;16.20;6.32;;;;;;;25.42;32.87;100547.16;4852690;29;20052;-88
2023/09/23 09:50:16;;;;;;;19.05;6.90;;;;;;;25.20;32.96;100500.50;4850730;29;20045;-90
2023/09/23 09:52:47;;;;;;;22.67;6.32;;;;;;;25.41;32.78;100558.75;4856615;29;20041;-91
2023/09/23 09:55:18;;;;;;;20.60;5.85;;;;;;;25.10;33.38;100490.81;4838239;29;20467;-90
2023/09/23 09:57:52;;;;;;;21.38;6.18;;;;;;;25.49;32.94;100555.63;4869118;29;20411;-86
2023/09/23 10:03:08;;;;;;;20.35;5.97;;;;;;;25.59;32.40;100553.31;4822003;29;20140;-87
2023/09/23 10:06:39;;;;;;;19.63;5.88;;;;;;;25.52;32.17;100540.84;4821124;29;20050;-88
2023/09/23 10:09:15;;;;;;;53.97;8.02;;;;;;;25.54;31.60;100548.88;4851161;29;20061;-89
2023/09/23 10:11:41;;;;;;;40.38;6.78;;;;;;;25.48;32.94;100540.00;4854640;29;20045;-91
2023/09/23 10:14:16;;;;;;;21.80;6.78;;;;;;;25.23;32.77;100522.13;4853403;29;20114;-89
2023/09/23 10:16:51;;;;;;;38.40;6.50;;;;;;;25.26;32.42;100515.78;4849373;29;20080;-87
2023/09/23 10:19:31;;;;;;;17.40;6.10;;;;;;;25.17;32.73;100495.72;4834597;29;20702;-87
2023/09/23 10:22:13;;;;;;;12.55;5.88;;;;;;;25.54;33.00;100548.88;4834474;29;20045;-87
2023/09/23 10:24:41;;;;;;;21.83;6.72;;;;;;;25.55;32.07;100508.47;4832369;29;20131;-90
2023/09/23 10:27:12;;;;;;;17.80;6.05;;;;;;;25.62;31.85;100528.16;4841702;29;20054;-89
2023/09/23 10:29:48;;;;;;;11.52;5.97;;;;;;;25.72;32.60;100541.44;4812657;29;20522;-89
2023/09/23 10:32:17;;;;;;;14.70;6.47;;;;;;;25.38;31.48;100487.53;4828914;29;20038;-88
2023/09/23 10:35:03;;;;;;;41.38;5.88;;;;;;;25.61;30.33;100522.94;4845798;29;20055;-91
2023/09/23 10:37:35;;;;;;;13.05;6.13;;;;;;;25.63;30.50;100518.56;4855941;29;20129;-90
2023/09/23 10:40:17;;;;;;;15.80;6.10;;;;;;;25.40;31.85;100459.16;4841374;29;20062;-91
2023/09/23 10:42:49;;;;;;;17.45;5.90;;;;;;;25.80;31.54;100502.31;4818885;29;20046;-90
2023/09/23 10:45:20;;;;;;;15.18;6.13;;;;;;;25.69;31.31;100507.78;4851284;29;20139;-88
2023/09/23 10:48:14;;;;;;;;;;;;;;;25.75;31.59;100523.06;4852302;29;20081;-91
2023/09/23 10:50:41;;;;;;;18.80;6.57;;;;;;;25.51;31.24;100510.44;4867781;29;19924;-91
2023/09/23 10:53:08;;;;;;;14.32;5.60;;;;;;;25.44;32.33;100476.78;4859877;29;20045;-90
2023/09/23 10:55:34;;;;;;;18.75;6.57;;;;;;;25.46;31.92;100483.63;4873887;29;20053;-89
2023/09/23 11:01:33;;;;;;;14.63;5.63;;;;;;;25.65;31.98;100481.75;4834891;29;20054;-90
2023/09/23 11:04:00;;;;;;;18.55;6.15;;;;;;;25.68;31.99;100490.19;4851994;29;20064;-87
2023/09/23 11:06:26;;;;;;;15.57;6.32;;;;;;;25.56;31.26;100484.88;4840219;29;20068;-90
2023/09/23 11:08:53;;;;;;;17.50;6.78;;;;;;;25.60;30.92;100504.53;4870501;29;20049;-90
2023/09/23 11:11:19;;;;;;;13.80;6.38;;;;;;;25.78;31.68;100511.88;4869443;29;20461;-88
2023/09/23 11:14:11;;;;;;;16.27;7.82;;;;;;;25.87;31.80;100519.19;4837758;29;20539;-92
2023/09/23 11:16:51;;;;;;;18.48;6.72;;;;;;;25.71;31.98;100474.63;4882791;29;20053;-89
2023/09/23 11:19:40;;;;;;;20.42;5.68;;;;;;;25.90;30.88;100494.00;4871402;29;20057;-88
2023/09/23 11:22:09;;;;;;;13.82;6.35;;;;;;;25.78;31.10;100475.47;4846805;29;20057;-89
2023/09/23 11:24:45;;;;;;;15.60;5.78;;;;;;;25.99;30.78;100505.69;4858701;29;20046;-90
2023/09/23 11:27:13;;;;;;;21.15;7.85;;;;;;;25.65;30.90;100451.75;4860940;29;20045;-89
2023/09/23 11:29:40;;;;;;;95.22;9.77;;;;;;;26.11;31.07;100504.56;4860871;29;20065;-91
2023/09/23 11:32:07;;;;;;;29.45;6.40;;;;;;;26.13;29.51;100507.78;4846880;29;20049;-91
2023/09/23 11:34:36;;;;;;;16.42;5.90;;;;;;;26.20;30.99;100498.63;4880900;29;20042;-89
2023/09/23 11:37:08;;;;;;;16.65;6.28;;;;;;;25.73;30.33;100419.81;4848036;29;20049;-90
2023/09/23 11:39:48;;;;;;;16.77;6.20;;;;;;;26.27;30.61;100493.06;4845678;29;20045;-90
2023/09/23 11:42:15;;;;;;;18.02;5.95;;;;;;;26.02;30.37;100429.22;4847848;29;20073;-90
2023/09/23 11:44:42;;;;;;;18.02;5.95;;;;;;;26.31;30.92;100467.84;4875478;29;20051;-92
2023/09/23 11:47:10;;;;;;;18.45;6.43;;;;;;;26.32;30.76;100463.84;4862629;29;20072;-89
2023/09/23 11:49:36;;;;;;;12.63;5.32;;;;;;;25.97;29.65;100412.81;4869629;29;20085;-89
2023/09/23 11:52:12;;;;;;;23.83;6.75;;;;;;;26.26;29.80;100460.63;4872629;29;20069;-90
2023/09/23 11:54:40;;;;;;;61.25;9.40;;;;;;;26.18;29.89;100459.75;4826873;29;20045;-91
2023/09/23 11:57:08;;;;;;;29.83;6.53;;;;;;;26.33;30.96;100476.69;4872484;29;20102;-90
2023/09/23 11:59:35;;;;;;;15.30;6.35;;;;;;;26.02;30.36;100428.44;4848104;29;20083;-87
2023/09/23 12:02:02;;;;;;;35.08;6.72;;;;;;;26.21;31.41;100480.59;4877557;29;20049;-87
2023/09/23 12:04:30;;;;;;;15.23;6.85;;;;;;;26.09;31.34;100490.13;4878034;29;20037;-87
2023/09/23 12:06:57;;;;;;;26.67;6.85;;;;;;;25.92;32.88;100448.78;4881502;29;20092;-88
2023/09/23 12:09:27;;;;;;;52.20;7.40;;;;;;;25.97;31.08;100491.25;4876802;29;20126;-88
2023/09/23 12:11:54;;;;;;;20.30;6.32;;;;;;;25.76;29.76;100491.03;4844433;29;20045;-88
2023/09/23 12:14:21;;;;;;;13.48;5.90;;;;;;;25.78;32.07;100469.06;4874705;29;20044;-87
2023/09/23 12:19:40;;;;;;;18.98;5.88;;;;;;;25.90;28.84;100476.41;4915090;29;20063;-87
2023/09/23 12:22:06;;;;;;;16.75;6.68;;;;;;;25.73;31.63;100433.81;4917443;29;20047;-86
2023/09/23 12:24:32;;;;;;;8.00;5.55;;;;;;;25.90;31.45;100448.38;4900512;29;20044;-87
2023/09/23 12:26:59;;;;;;;18.67;6.53;;;;;;;25.80;29.93;100440.69;4934150;29;20048;-89
2023/09/23 12:29:27;;;;;;;10.23;5.82;;;;;;;25.86;29.50;100478.34;4903002;29;20048;-87
2023/09/23 12:31:55;;;;;;;19.08;6.32;;;;;;;25.91;30.93;100472.41;4934653;29;20052;-87
2023/09/23 12:34:22;;;;;;;39.70;7.95;;;;;;;25.67;30.54;100438.19;4931727;29;20076;-88
2023/09/23 12:36:49;;;;;;;28.88;6.95;;;;;;;26.07;30.82;100474.91;4924308;29;20076;-89
2023/09/23 12:39:19;;;;;;;21.40;7.18;;;;;;;26.10;30.43;100472.13;4924385;29;20047;-91
2023/09/23 12:41:44;;;;;;;38.78;6.78;;;;;;;25.72;29.28;100435.00;4923828;29;20058;-88
2023/09/23 12:44:12;;;;;;;14.70;7.72;;;;;;;25.75;30.45;100427.81;4929456;29;20032;-88
2023/09/23 12:46:40;;;;;;;22.23;6.65;;;;;;;25.84;29.45;100438.72;4927274;29;20044;-88
2023/09/23 12:49:07;;;;;;;10.57;6.07;;;;;;;25.88;29.29;100462.75;4942940;29;20043;-89
2023/09/23 12:51:35;;;;;;;22.55;8.68;;;;;;;25.86;30.11;100467.97;4910082;29;20616;-89
2023/09/23 12:54:04;;;;;;;26.90;8.63;;;;;;;25.87;30.10;100465.97;4924883;29;20052;-89
2023/09/23 12:56:32;;;;;;;21.85;8.95;;;;;;;25.92;29.41;100462.78;4909099;29;20055;-87
2023/09/23 12:58:59;;;;;;;16.10;6.78;;;;;;;25.66;29.98;100422.56;4926146;29;20060;-87
2023/09/23 13:01:26;;;;;;;23.50;7.82;;;;;;;25.41;29.36;100407.56;4922460;29;20374;-88
2023/09/23 13:03:54;;;;;;;30.42;7.88;;;;;;;25.51;29.16;100409.66;4909223;29;20032;-88
2023/09/23 13:06:20;;;;;;;23.40;6.85;;;;;;;25.76;29.09;100454.63;4909506;29;20052;-88
2023/09/23 13:08:46;;;;;;;12.40;6.80;;;;;;;25.60;30.52;100417.72;4928120;29;20046;-89
2023/09/23 13:11:16;;;;;;;26.80;7.20;;;;;;;25.51;29.51;100412.44;4908811;29;20052;-90
2023/09/23 13:13:42;;;;;;;27.33;6.88;;;;;;;25.73;30.15;100456.25;4896239;29;20051;-89
2023/09/23 13:16:08;;;;;;;47.33;7.25;;;;;;;25.65;29.82;100442.56;4924624;29;20040;-91
2023/09/23 13:18:35;;;;;;;19.42;7.18;;;;;;;25.20;30.23;100374.59;4924897;29;20063;-90
2023/09/23 13:21:03;;;;;;;10.13;6.45;;;;;;;25.31;29.75;100395.09;4925458;29;20044;-90
2023/09/23 13:23:34;;;;;;;25.52;6.70;;;;;;;25.75;30.06;100447.44;4926969;29;20032;-90
2023/09/23 13:26:01;;;;;;;17.42;6.53;;;;;;;25.54;29.88;100440.47;4895533;29;20050;-88
2023/09/23 13:28:28;;;;;;;17.85;6.32;;;;;;;25.53;30.19;100430.47;4924763;29;20052;-89
2023/09/23 13:30:54;;;;;;;31.58;6.55;;;;;;;25.46;30.34;100426.78;4905476;29;20525;-88
2023/09/23 13:33:23;;;;;;;67.63;7.85;;;;;;;25.44;29.42;100423.59;4920373;29;20098;-88
2023/09/23 13:35:49;;;;;;;15.43;6.57;;;;;;;25.30;30.10;100408.28;4907208;29;20054;-89
2023/09/23 13:38:15;;;;;;;34.75;6.90;;;;;;;25.24;30.02;100392.22;4920758;29;20131;-89
2023/09/23 13:40:43;;;;;;;26.40;6.57;;;;;;;25.28;30.20;100404.25;4903452;29;20123;-88
2023/09/23 13:43:08;;;;;;;;;;;;;;;25.38;30.62;100444.72;4907373;29;20040;-89
2023/09/23 13:45:35;;;;;;;14.30;5.75;;;;;;;25.35;30.71;100417.50;4904122;29;19930;-90
2023/09/23 13:48:01;;;;;;;14.52;6.03;;;;;;;25.32;29.30;100396.69;4905171;29;20045;-89
2023/09/23 13:50:27;;;;;;;17.48;6.32;;;;;;;25.36;29.05;100407.91;4888424;29;20044;-88
2023/09/23 13:52:55;;;;;;;33.55;6.57;;;;;;;25.47;28.20;100436.81;4913800;29;20055;-88
2023/09/23 13:55:23;;;;;;;22.85;6.65;;;;;;;25.37;29.10;100407.53;4906069;29;20049;-90
2023/09/23 13:57:49;;;;;;;91.47;8.13;;;;;;;25.41;29.24;100399.97;4892652;29;20144;-90
2023/09/23 14:00:15;;;;;;;61.08;7.80;;;;;;;25.60;29.68;100435.31;4890526;29;20455;-89
2023/09/23 14:02:43;;;;;;;40.90;7.50;;;;;;;25.07;28.19;100390.84;4889938;29;20052;-89
2023/09/23 14:05:13;;;;;;;15.93;6.30;;;;;;;25.28;29.70;100433.03;4890010;29;20135;-91
2023/09/23 14:07:39;;;;;;;16.00;9.10;;;;;;;25.21;28.81;100426.59;4892789;29;20063;-90
2023/09/23 14:10:10;;;;;;;38.28;7.07;;;;;;;24.91;28.59;100407.88;4911852;29;20092;-90
2023/09/23 14:12:38;;;;;;;110.75;9.27;;;;;;;24.91;28.86;100416.28;4888698;29;20528;-89
2023/09/23 14:15:05;;;;;;;33.45;6.63;;;;;;;24.85;30.14;100415.00;4908684;29;20584;-90
2023/09/23 14:17:31;;;;;;;11.05;5.32;;;;;;;24.71;29.01;100414.84;4861616;29;20048;-89
2023/09/23 14:20:03;;;;;;;12.80;5.40;;;;;;;24.95;29.34;100427.50;4892255;29;20079;-90
2023/09/23 14:22:47;;;;;;;12.93;5.47;;;;;;;24.78;29.56;100410.13;4892711;29;20089;-90
2023/09/23 14:25:23;;;;;;;32.83;6.03;;;;;;;24.67;29.30;100388.81;4916121;29;20056;-91
2023/09/23 14:27:50;;;;;;;21.85;5.57;;;;;;;24.64;29.79;100400.78;4893351;29;20048;-89
2023/09/23 14:30:18;;;;;;;19.60;6.32;;;;;;;24.67;28.92;100420.41;4897134;29;20063;-90
2023/09/23 14:32:45;;;;;;;51.28;6.65;;;;;;;24.46;29.50;100406.97;4895231;29;20052;-89
2023/09/23 14:35:12;;;;;;;31.00;5.63;;;;;;;24.48;30.01;100423.38;4892524;29;20048;-89
2023/09/23 14:37:38;;;;;;;33.60;5.55;;;;;;;24.10;29.50;100389.69;4897129;29;20100;-90
2023/09/23 14:40:07;;;;;;;11.63;5.75;;;;;;;24.26;30.93;100394.28;4879874;29;20060;-90
2023/09/23 14:42:33;;;;;;;30.00;5.72;;;;;;;24.38;29.90;100408.84;4895490;29;20020;-89
2023/09/23 14:44:59;;;;;;;33.00;7.00;;;;;;;24.32;30.40;100431.91;4906420;29;20045;-90
2023/09/23 14:47:26;;;;;;;28.83;6.65;;;;;;;23.83;30.54;100402.88;4874961;29;20055;-89
2023/09/23 14:49:53;;;;;;;;;;;;;;;23.79;31.89;100434.75;4911376;29;20045;-89
2023/09/23 14:52:19;;;;;;;31.77;8.75;;;;;;;23.34;32.87;100384.13;4909556;29;19950;-86
2023/09/23 14:54:46;;;;;;;34.63;9.70;;;;;;;23.35;32.13;100382.97;4909300;29;20037;-87